Time;durP1;ratioP1;P1;durP2;ratioP2;P2;SDS_P1;SDS_P2;PMS_P1;PMS_P2;Temp;Humidity;BMP_temperature;BMP_pressure;BME280_temperature;BME280_humidity;BME280_pressure;Samples;Min_cycle;Max_cycle;Signal;HPM_P1;HPM_P2
2022/08/07 00:00:20;;;;;;;2.50;1.10;;;;;;;16.33;51.01;101356.22;5037378;28;20029;-71
2022/08/07 00:02:45;;;;;;;3.53;1.25;;;;;;;16.29;51.96;101352.38;5055129;28;20025;-71
2022/08/07 00:05:11;;;;;;;4.22;1.17;;;;;;;16.28;50.83;101351.53;5037348;28;20029;-71
2022/08/07 00:07:36;;;;;;;5.13;1.38;;;;;;;16.27;50.56;101352.69;5056436;28;20683;-72
2022/08/07 00:10:02;;;;;;;3.83;1.17;;;;;;;16.30;49.94;101345.63;5068381;28;20040;-71
2022/08/07 00:12:27;;;;;;;4.90;1.00;;;;;;;16.27;51.14;101337.84;5041217;28;20530;-71
2022/08/07 00:14:53;;;;;;;6.28;1.10;;;;;;;16.18;51.60;101346.13;5058847;28;20033;-71
2022/08/07 00:17:18;;;;;;;1.95;0.90;;;;;;;16.17;52.32;101349.28;5058884;28;20056;-71
2022/08/07 00:19:45;;;;;;;2.78;0.90;;;;;;;16.14;51.51;101345.13;5058762;28;20053;-72
2022/08/07 00:22:10;;;;;;;4.20;1.08;;;;;;;16.11;52.76;101340.13;5057680;28;20036;-72
2022/08/07 00:24:36;;;;;;;3.58;1.00;;;;;;;16.08;50.75;101338.78;5058767;28;20052;-71
2022/08/07 00:27:02;;;;;;;3.35;1.08;;;;;;;16.07;50.69;101339.09;5058609;28;20064;-71
2022/08/07 00:29:28;;;;;;;4.40;1.02;;;;;;;15.95;51.62;101341.56;5040870;28;20044;-71
2022/08/07 00:31:55;;;;;;;2.97;1.20;;;;;;;16.01;51.32;101334.72;5058742;28;20108;-71
2022/08/07 00:34:21;;;;;;;4.18;1.00;;;;;;;15.95;51.27;101331.19;5040636;28;20033;-71
2022/08/07 00:36:46;;;;;;;2.67;0.93;;;;;;;15.88;52.66;101332.75;5058459;28;20459;-71
2022/08/07 00:39:12;;;;;;;2.97;0.98;;;;;;;15.84;52.37;101329.72;5040610;28;20032;-71
2022/08/07 00:41:38;;;;;;;2.28;0.80;;;;;;;15.82;52.22;101327.25;5064352;28;20033;-71
2022/08/07 00:44:03;;;;;;;2.47;0.85;;;;;;;15.79;52.47;101332.63;5040646;28;20029;-71
2022/08/07 00:46:30;;;;;;;2.13;1.00;;;;;;;15.79;52.50;101327.03;5058307;28;20025;-71
2022/08/07 00:49:00;;;;;;;3.38;1.20;;;;;;;15.67;55.08;101330.31;5040469;28;20083;-71
2022/08/07 00:51:27;;;;;;;3.10;1.00;;;;;;;15.62;55.50;101327.59;5058091;28;20033;-71
2022/08/07 00:53:52;;;;;;;6.60;1.30;;;;;;;15.52;57.12;101328.63;5040587;28;20021;-71
2022/08/07 00:56:18;;;;;;;3.50;1.08;;;;;;;15.43;57.10;101319.25;5058167;28;20029;-71
2022/08/07 00:58:43;;;;;;;4.07;1.23;;;;;;;15.41;58.50;101313.97;5042749;28;20040;-71
2022/08/07 01:01:09;;;;;;;3.38;1.15;;;;;;;15.37;57.91;101312.91;5058225;28;20036;-71
2022/08/07 01:03:34;;;;;;;4.55;1.20;;;;;;;15.36;57.71;101308.47;5057859;28;20468;-71
2022/08/07 01:06:01;;;;;;;4.40;1.10;;;;;;;15.37;57.21;101301.72;5039987;28;20055;-71
2022/08/07 01:08:27;;;;;;;5.10;1.10;;;;;;;15.34;57.87;101310.72;5040417;28;20049;-71
2022/08/07 01:10:52;;;;;;;4.05;1.02;;;;;;;15.30;57.40;101301.31;5040532;28;20029;-71
2022/08/07 01:13:18;;;;;;;6.03;1.27;;;;;;;15.34;57.32;101293.13;5040160;28;20040;-71
2022/08/07 01:15:44;;;;;;;3.60;1.10;;;;;;;15.29;57.91;101304.41;5039921;28;20041;-71
2022/08/07 01:18:09;;;;;;;5.28;1.30;;;;;;;15.28;57.60;101303.56;5039499;28;20033;-71
2022/08/07 01:20:40;;;;;;;4.53;1.13;;;;;;;15.22;57.93;101302.00;5023459;28;20049;-71
2022/08/07 01:23:06;;;;;;;3.85;1.13;;;;;;;15.19;57.82;101302.63;5038433;28;20378;-71
2022/08/07 01:25:31;;;;;;;3.17;0.82;;;;;;;15.18;58.12;101301.78;5057598;28;20086;-71
2022/08/07 01:27:57;;;;;;;8.10;1.33;;;;;;;15.19;58.93;101297.03;5017473;28;20045;-71
2022/08/07 01:30:24;;;;;;;3.20;0.93;;;;;;;15.14;58.01;101297.94;5038211;28;20465;-71
2022/08/07 01:32:49;;;;;;;3.20;0.90;;;;;;;15.24;55.61;101287.69;5022949;28;20048;-71
2022/08/07 01:35:15;;;;;;;3.63;1.00;;;;;;;15.24;55.64;101291.34;5057305;28;20033;-71
2022/08/07 01:37:40;;;;;;;5.95;1.30;;;;;;;15.15;57.99;101288.38;5039558;28;20477;-71
2022/08/07 01:40:06;;;;;;;4.18;1.15;;;;;;;15.17;56.86;101282.50;5023014;28;20040;-71
2022/08/07 01:42:32;;;;;;;3.97;1.08;;;;;;;15.14;56.45;101285.91;5039368;28;20079;-71
2022/08/07 01:44:58;;;;;;;4.32;1.25;;;;;;;15.14;55.93;101283.13;5023171;28;20532;-71
2022/08/07 01:47:23;;;;;;;2.80;0.90;;;;;;;15.10;58.24;101290.44;5044325;28;20024;-71
2022/08/07 01:49:49;;;;;;;2.55;1.20;;;;;;;15.04;57.91;101286.06;5057169;28;20040;-71
2022/08/07 01:52:14;;;;;;;2.88;1.17;;;;;;;15.17;55.97;101285.31;5056946;28;20047;-71
2022/08/07 01:54:40;;;;;;;5.18;0.90;;;;;;;15.13;55.74;101273.06;5039089;28;20033;-71
2022/08/07 01:57:17;;;;;;;5.00;0.80;;;;;;;15.17;55.09;101276.91;5039206;28;20033;-71
2022/08/07 02:00:10;;;;;;;8.13;1.40;;;;;;;15.12;55.76;101274.19;5039121;28;20045;-71
2022/08/07 02:02:41;;;;;;;3.50;0.93;;;;;;;15.07;55.63;101277.94;5035744;28;20041;-71
2022/08/07 02:05:08;;;;;;;2.33;0.82;;;;;;;15.09;55.09;101280.41;5037959;28;20538;-71
2022/08/07 02:07:36;;;;;;;5.78;1.70;;;;;;;15.01;55.82;101279.13;5022891;28;20045;-71
2022/08/07 02:10:02;;;;;;;4.03;1.00;;;;;;;15.03;55.74;101281.63;5055233;28;20058;-71
2022/08/07 02:12:30;;;;;;;3.55;0.90;;;;;;;15.07;55.33;101280.72;5047042;28;20056;-71
2022/08/07 02:14:56;;;;;;;4.68;1.50;;;;;;;14.86;59.98;101277.41;4992193;28;20033;-71
2022/08/07 02:17:21;;;;;;;3.03;1.50;;;;;;;14.78;59.67;101280.91;5017676;28;20032;-71
2022/08/07 02:19:48;;;;;;;3.92;1.10;;;;;;;14.81;57.81;101274.69;4998079;28;20115;-71
2022/08/07 02:22:13;;;;;;;4.20;1.05;;;;;;;14.84;56.87;101279.69;5032916;28;20061;-71
2022/08/07 02:24:42;;;;;;;2.40;0.90;;;;;;;14.87;56.55;101281.03;5035480;28;20026;-71
2022/08/07 02:27:08;;;;;;;5.05;1.10;;;;;;;14.81;57.13;101271.09;5034892;28;20033;-71
2022/08/07 02:29:34;;;;;;;3.25;1.25;;;;;;;14.84;56.90;101270.47;5018677;28;20044;-71
2022/08/07 02:32:00;;;;;;;2.13;1.00;;;;;;;14.85;56.15;101274.91;5034536;28;20083;-71
2022/08/07 02:34:27;;;;;;;3.83;1.08;;;;;;;14.82;56.10;101273.59;5018771;28;20030;-71
2022/08/07 02:36:52;;;;;;;5.47;1.10;;;;;;;14.76;57.45;101269.19;5028463;28;20503;-71
2022/08/07 02:39:17;;;;;;;2.35;1.30;;;;;;;14.82;56.21;101275.53;5013462;28;20034;-71
2022/08/07 02:41:44;;;;;;;1.83;0.98;;;;;;;14.80;56.15;101272.22;5033303;28;20033;-72
2022/08/07 02:44:10;;;;;;;5.32;1.33;;;;;;;14.78;55.67;101274.50;5051546;28;20585;-71
2022/08/07 02:46:35;;;;;;;2.10;1.00;;;;;;;14.76;55.86;101277.56;5010122;28;20037;-71
2022/08/07 02:49:01;;;;;;;2.15;0.90;;;;;;;14.77;55.55;101276.47;5034749;28;20025;-71
2022/08/07 02:51:26;;;;;;;4.13;1.42;;;;;;;14.74;57.85;101279.88;5036105;28;20025;-71
2022/08/07 02:53:53;;;;;;;2.00;0.80;;;;;;;14.75;55.48;101271.16;5016348;28;20030;-71
2022/08/07 02:56:19;;;;;;;4.55;1.10;;;;;;;14.78;55.49;101266.09;5018580;28;20029;-71
2022/08/07 02:58:45;;;;;;;3.17;1.00;;;;;;;14.65;56.55;101270.47;5031925;28;20428;-71
2022/08/07 03:01:10;;;;;;;5.30;1.20;;;;;;;14.65;57.43;101264.88;5002038;28;20033;-71
2022/08/07 03:03:36;;;;;;;2.97;1.40;;;;;;;14.68;56.39;101273.53;5032059;28;20026;-71
2022/08/07 03:06:01;;;;;;;4.72;1.05;;;;;;;14.68;55.36;101269.88;5033738;28;20029;-71
2022/08/07 03:08:28;;;;;;;2.60;0.90;;;;;;;14.62;55.58;101271.91;5027940;28;20066;-71
2022/08/07 03:10:54;;;;;;;2.17;0.80;;;;;;;14.62;55.48;101266.31;4975803;28;20037;-71
2022/08/07 03:13:20;;;;;;;3.67;1.15;;;;;;;14.56;56.00;101267.53;5024882;28;20034;-71
2022/08/07 03:15:45;;;;;;;4.38;1.20;;;;;;;14.50;57.57;101275.13;5034068;28;20034;-71
2022/08/07 03:18:11;;;;;;;3.63;1.33;;;;;;;14.51;57.74;101264.78;4994362;28;20033;-71
2022/08/07 03:20:38;;;;;;;3.72;1.25;;;;;;;14.55;56.20;101265.06;5008307;28;20460;-71
2022/08/07 03:23:03;;;;;;;5.63;1.17;;;;;;;14.51;56.34;101260.06;5001710;28;20102;-70
2022/08/07 03:25:29;;;;;;;2.78;1.02;;;;;;;14.52;56.26;101258.13;5012923;28;20029;-71
2022/08/07 03:27:54;;;;;;;6.72;1.50;;;;;;;14.49;57.43;101261.47;5017789;28;20030;-71
2022/08/07 03:30:21;;;;;;;3.15;1.27;;;;;;;14.45;56.20;101250.06;5025460;28;20037;-71
2022/08/07 03:32:46;;;;;;;3.42;1.20;;;;;;;14.44;56.80;101251.19;5034445;28;20041;-71
2022/08/07 03:35:13;;;;;;;2.42;0.93;;;;;;;14.42;56.87;101247.88;5013797;28;20100;-71
2022/08/07 03:37:39;;;;;;;2.90;1.60;;;;;;;14.40;56.62;101250.16;5034477;28;20032;-71
2022/08/07 03:40:05;;;;;;;3.00;1.23;;;;;;;14.41;56.01;101246.22;5017938;28;20022;-71
2022/08/07 03:42:31;;;;;;;3.65;1.02;;;;;;;14.40;55.68;101246.50;5020154;28;20041;-71
2022/08/07 03:44:57;;;;;;;2.05;0.90;;;;;;;14.37;55.72;101245.16;5022025;28;20085;-71
2022/08/07 03:47:22;;;;;;;4.60;1.20;;;;;;;14.34;57.09;101248.53;5038090;28;20029;-71
2022/08/07 03:49:47;;;;;;;2.25;0.90;;;;;;;14.33;56.04;101252.47;5038535;28;20393;-71
2022/08/07 03:52:13;;;;;;;2.67;1.40;;;;;;;14.29;55.87;101252.25;5038092;28;20026;-71
2022/08/07 03:54:38;;;;;;;4.68;1.23;;;;;;;14.23;55.93;101252.63;5021596;28;20037;-70
2022/08/07 03:57:04;;;;;;;2.78;1.33;;;;;;;14.25;56.47;101253.16;5045648;28;20033;-71
2022/08/07 03:59:31;;;;;;;3.38;1.17;;;;;;;14.18;55.77;101250.75;5038186;28;20033;-70
2022/08/07 04:01:56;;;;;;;3.72;1.20;;;;;;;14.20;56.26;101247.63;5037733;28;20079;-70
2022/08/07 04:04:22;;;;;;;6.68;1.30;;;;;;;14.20;56.46;101247.63;5038214;28;20026;-71
2022/08/07 04:06:47;;;;;;;4.20;1.55;;;;;;;14.15;56.25;101250.50;5005090;28;20041;-71
2022/08/07 04:09:13;;;;;;;2.90;1.17;;;;;;;14.14;56.17;101255.25;5038077;28;20041;-70
2022/08/07 04:11:40;;;;;;;2.35;1.20;;;;;;;14.12;55.84;101254.72;5039076;28;20040;-70
2022/08/07 04:14:05;;;;;;;2.85;1.00;;;;;;;14.05;55.73;101254.28;5037901;28;20036;-70
2022/08/07 04:16:31;;;;;;;2.97;1.10;;;;;;;14.06;55.81;101259.53;5039088;28;20033;-70
2022/08/07 04:18:56;;;;;;;3.00;1.20;;;;;;;14.05;55.76;101257.06;5040477;28;20049;-71
2022/08/07 04:21:22;;;;;;;3.80;1.20;;;;;;;14.03;55.98;101259.31;5039677;28;20040;-70
2022/08/07 04:23:47;;;;;;;3.67;1.38;;;;;;;13.99;55.75;101253.50;5059015;28;20040;-70
2022/08/07 04:26:13;;;;;;;2.92;1.13;;;;;;;13.95;56.10;101257.19;5041090;28;20585;-71
2022/08/07 04:28:41;;;;;;;5.45;1.35;;;;;;;13.97;56.29;101255.75;4991666;28;20037;-70
2022/08/07 04:31:08;;;;;;;2.65;1.13;;;;;;;13.94;55.69;101267.53;5024296;28;20028;-71
2022/08/07 04:33:33;;;;;;;2.33;1.08;;;;;;;13.93;55.82;101265.88;5008410;28;20055;-70
2022/08/07 04:35:59;;;;;;;2.85;1.20;;;;;;;13.87;55.97;101255.88;5024175;28;20110;-71
2022/08/07 04:38:25;;;;;;;1.85;1.00;;;;;;;13.84;55.39;101259.25;5040683;28;20039;-71
2022/08/07 04:40:51;;;;;;;2.85;1.15;;;;;;;13.81;55.75;101262.66;5040896;28;20032;-71
2022/08/07 04:43:17;;;;;;;2.15;1.23;;;;;;;13.81;55.57;101262.66;5052242;28;20032;-71
2022/08/07 04:45:52;;;;;;;1.90;1.00;;;;;;;13.80;55.87;101266.59;5024017;28;20048;-71
2022/08/07 04:48:21;;;;;;;2.55;1.10;;;;;;;13.77;55.85;101261.59;5023846;28;20043;-71
2022/08/07 04:50:49;;;;;;;2.67;1.40;;;;;;;13.75;56.04;101259.09;5058508;28;20036;-71
2022/08/07 04:53:20;;;;;;;2.40;1.30;;;;;;;13.76;55.99;101271.09;5057489;28;20033;-71
2022/08/07 04:55:58;;;;;;;3.10;1.20;;;;;;;13.72;56.20;101272.81;5024457;28;20033;-71
2022/08/07 04:58:39;;;;;;;1.88;1.10;;;;;;;13.70;56.50;101266.69;5005373;28;20041;-71
2022/08/07 05:01:13;;;;;;;2.15;1.02;;;;;;;13.69;56.65;101276.22;5040473;28;20051;-71
2022/08/07 05:03:59;;;;;;;2.75;1.30;;;;;;;13.68;56.73;101272.59;5033994;28;20079;-72
2022/08/07 05:06:34;;;;;;;2.72;1.17;;;;;;;13.67;56.90;101267.28;5040164;28;20072;-71
2022/08/07 05:08:59;;;;;;;2.10;1.33;;;;;;;13.69;57.43;101270.63;5049412;28;20460;-71
2022/08/07 05:11:33;;;;;;;1.58;1.20;;;;;;;13.66;57.05;101272.06;5057916;28;20037;-71
2022/08/07 05:14:01;;;;;;;3.30;1.00;;;;;;;13.70;57.34;101263.91;5040118;28;20459;-71
2022/08/07 05:16:28;;;;;;;3.35;1.40;;;;;;;13.75;58.45;101269.44;5023422;28;20036;-71
2022/08/07 05:18:56;;;;;;;4.20;1.50;;;;;;;13.81;59.97;101268.25;5007358;28;20052;-71
2022/08/07 05:21:22;;;;;;;2.88;1.40;;;;;;;13.89;59.92;101263.97;5021239;28;20162;-71
2022/08/07 05:23:51;;;;;;;3.88;1.23;;;;;;;13.95;60.05;101268.34;5023520;28;20067;-71
2022/08/07 05:26:21;;;;;;;3.83;1.50;;;;;;;14.02;62.54;101274.41;5023519;28;20040;-71
2022/08/07 05:28:48;;;;;;;3.47;1.30;;;;;;;14.13;60.84;101281.53;5025837;28;20108;-71
2022/08/07 05:31:15;;;;;;;2.45;1.30;;;;;;;14.24;60.20;101280.28;5040059;28;20041;-71
2022/08/07 05:33:40;;;;;;;4.68;1.48;;;;;;;14.38;62.94;101285.13;5023100;28;20033;-71
2022/08/07 05:36:06;;;;;;;3.53;1.50;;;;;;;14.50;63.85;101286.31;5057631;28;20083;-71
2022/08/07 05:38:32;;;;;;;4.07;1.50;;;;;;;14.65;63.04;101281.66;5056132;28;20060;-71
2022/08/07 05:40:57;;;;;;;2.58;1.10;;;;;;;14.78;57.90;101277.28;5039406;28;20036;-71
2022/08/07 05:43:23;;;;;;;2.05;1.10;;;;;;;14.94;56.90;101282.31;5039824;28;20500;-70
2022/08/07 05:45:48;;;;;;;3.85;1.40;;;;;;;15.11;56.42;101278.13;5039560;28;20090;-70
2022/08/07 05:48:14;;;;;;;3.42;1.40;;;;;;;15.29;56.61;101290.41;5022863;28;20029;-70
2022/08/07 05:50:40;;;;;;;2.60;1.30;;;;;;;15.46;56.00;101289.81;5009553;28;20120;-71
2022/08/07 05:53:05;;;;;;;4.25;1.30;;;;;;;15.63;55.27;101293.69;5022792;28;20037;-71
2022/08/07 05:55:32;;;;;;;3.42;1.55;;;;;;;15.81;54.53;101291.97;5057038;28;20036;-71
2022/08/07 05:57:57;;;;;;;3.47;1.30;;;;;;;15.99;54.07;101297.78;5057074;28;20076;-71
2022/08/07 06:00:23;;;;;;;1.73;1.20;;;;;;;16.16;53.69;101286.78;5022565;28;20029;-71
2022/08/07 06:02:49;;;;;;;3.72;1.10;;;;;;;16.36;53.21;101290.28;5039047;28;20025;-71
2022/08/07 06:05:15;;;;;;;2.28;1.13;;;;;;;16.53;52.81;101301.66;5022889;28;20048;-71
2022/08/07 06:07:40;;;;;;;3.53;1.10;;;;;;;16.71;52.35;101302.66;5038717;28;20053;-70
2022/08/07 06:10:07;;;;;;;2.53;1.23;;;;;;;16.89;52.50;101298.06;5022411;28;20484;-73
2022/08/07 06:12:33;;;;;;;4.13;1.63;;;;;;;17.02;52.03;101296.34;5019648;28;20041;-67
2022/08/07 06:14:58;;;;;;;3.53;1.65;;;;;;;17.13;52.67;101301.41;5056454;28;20033;-67
2022/08/07 06:17:24;;;;;;;4.47;1.40;;;;;;;17.29;52.96;101303.78;5038305;28;20055;-67
2022/08/07 06:19:49;;;;;;;4.30;1.75;;;;;;;17.40;54.80;101302.38;5004141;28;20498;-65
2022/08/07 06:22:15;;;;;;;3.90;1.60;;;;;;;17.52;55.01;101311.03;5021385;28;20086;-66
2022/08/07 06:24:41;;;;;;;4.65;1.55;;;;;;;17.69;54.07;101303.84;5022188;28;20051;-66
2022/08/07 06:27:06;;;;;;;3.35;1.33;;;;;;;17.82;54.06;101306.59;5022307;28;20028;-70
2022/08/07 06:29:33;;;;;;;4.18;1.60;;;;;;;17.95;54.02;101302.03;5012632;28;20033;-69
2022/08/07 06:31:58;;;;;;;4.57;1.52;;;;;;;18.13;54.74;101311.34;5019273;28;20373;-69
2022/08/07 06:34:25;;;;;;;4.20;1.70;;;;;;;18.28;54.00;101307.25;5005513;28;20083;-69
2022/08/07 06:36:50;;;;;;;3.70;1.60;;;;;;;18.43;53.86;101306.78;5005848;28;20041;-69
2022/08/07 06:39:16;;;;;;;6.80;1.58;;;;;;;18.60;53.52;101310.78;5002469;28;20040;-70
2022/08/07 06:41:44;;;;;;;6.68;1.75;;;;;;;18.80;53.52;101315.78;5017318;28;20021;-70
2022/08/07 06:44:10;;;;;;;5.75;1.48;;;;;;;18.96;52.93;101314.13;5005837;28;20469;-69
2022/08/07 06:46:36;;;;;;;4.97;1.50;;;;;;;19.14;52.38;101319.78;4999032;28;20028;-69
2022/08/07 06:49:02;;;;;;;2.33;1.55;;;;;;;19.29;52.14;101315.63;5021876;28;20036;-69
2022/08/07 06:51:30;;;;;;;6.15;1.95;;;;;;;19.44;51.59;101317.88;5005484;28;20083;-70
2022/08/07 06:54:01;;;;;;;3.53;1.70;;;;;;;19.55;51.07;101318.38;5022326;28;20036;-70
2022/08/07 06:56:39;;;;;;;7.43;1.60;;;;;;;19.69;50.25;101324.66;5023308;28;20369;-70
2022/08/07 06:59:22;;;;;;;7.00;1.60;;;;;;;19.81;49.82;101319.16;5008404;28;20028;-70
2022/08/07 07:01:48;;;;;;;2.75;1.52;;;;;;;19.90;49.87;101321.13;5005805;28;20412;-71
2022/08/07 07:04:13;;;;;;;3.22;1.55;;;;;;;20.04;49.04;101310.44;5021842;28;20108;-71
2022/08/07 07:06:39;;;;;;;3.33;1.30;;;;;;;20.18;49.10;101316.66;5021825;28;20044;-71
2022/08/07 07:09:20;;;;;;;6.38;1.48;;;;;;;20.34;48.50;101313.25;5021658;28;20040;-71
2022/08/07 07:12:06;;;;;;;4.55;1.55;;;;;;;20.46;48.40;101314.16;5035845;28;20127;-71
2022/08/07 07:14:36;;;;;;;3.25;1.70;;;;;;;20.52;47.24;101314.78;5035190;28;20037;-71
2022/08/07 07:17:05;;;;;;;3.90;1.42;;;;;;;20.55;47.05;101316.97;5037746;28;20045;-71
2022/08/07 07:19:37;;;;;;;4.53;1.50;;;;;;;20.69;46.56;101311.06;5002182;28;20057;-71
2022/08/07 07:22:03;;;;;;;3.22;1.40;;;;;;;20.86;46.70;101315.75;5021523;28;20029;-70
2022/08/07 07:24:28;;;;;;;7.25;1.80;;;;;;;20.97;46.15;101314.16;5021490;28;20100;-71
2022/08/07 07:26:56;;;;;;;5.03;1.55;;;;;;;21.12;46.19;101312.72;5004923;28;20037;-71
2022/08/07 07:29:24;;;;;;;4.88;1.30;;;;;;;21.20;45.78;101312.63;5004900;28;20033;-71
2022/08/07 07:31:50;;;;;;;4.25;1.42;;;;;;;21.34;45.02;101308.66;4987233;28;20030;-71
2022/08/07 07:34:23;;;;;;;5.57;1.38;;;;;;;21.37;44.64;101300.34;4997099;28;20532;-71
2022/08/07 07:36:48;;;;;;;4.43;1.50;;;;;;;21.50;44.15;101315.31;5016437;28;20040;-71
2022/08/07 07:39:14;;;;;;;3.38;1.50;;;;;;;21.58;43.59;101313.59;5019990;28;20029;-71
2022/08/07 07:41:39;;;;;;;4.00;1.55;;;;;;;21.62;43.21;101306.06;5003783;28;20481;-71
2022/08/07 07:44:05;;;;;;;4.03;1.38;;;;;;;21.75;43.18;101315.38;5037854;28;20027;-71
2022/08/07 07:46:32;;;;;;;4.38;1.20;;;;;;;21.87;42.37;101309.78;5021505;28;20063;-71
2022/08/07 07:48:57;;;;;;;3.20;1.38;;;;;;;21.91;42.24;101318.38;5017971;28;20037;-71
2022/08/07 07:51:23;;;;;;;5.90;1.40;;;;;;;22.08;42.46;101316.13;5012377;28;20036;-70
2022/08/07 07:53:49;;;;;;;4.50;1.40;;;;;;;22.13;42.05;101312.25;5003595;28;20389;-70
2022/08/07 07:56:14;;;;;;;4.07;1.30;;;;;;;22.18;42.08;101314.88;5021475;28;20158;-69
2022/08/07 07:58:39;;;;;;;4.20;1.58;;;;;;;22.16;42.24;101317.19;5021084;28;20035;-70
2022/08/07 08:01:06;;;;;;;2.63;1.23;;;;;;;22.32;41.54;101308.03;5004857;28;20035;-70
2022/08/07 08:03:32;;;;;;;3.38;1.20;;;;;;;22.39;41.01;101313.91;5021051;28;20485;-70
2022/08/07 08:05:58;;;;;;;5.95;1.52;;;;;;;22.45;40.54;101324.63;5021161;28;20040;-70
2022/08/07 08:08:25;;;;;;;3.17;1.30;;;;;;;22.57;40.24;101317.31;5021176;28;20392;-70
2022/08/07 08:10:50;;;;;;;4.63;1.38;;;;;;;22.67;40.03;101308.31;5003981;28;20428;-69
2022/08/07 08:13:16;;;;;;;5.90;1.40;;;;;;;22.79;40.12;101310.28;5037738;28;20028;-70
2022/08/07 08:15:41;;;;;;;2.80;1.20;;;;;;;22.86;39.57;101311.34;5021058;28;20033;-69
2022/08/07 08:18:08;;;;;;;4.13;1.25;;;;;;;22.93;39.43;101303.06;5020965;28;20037;-70
2022/08/07 08:20:33;;;;;;;3.97;1.42;;;;;;;23.03;39.54;101303.75;5004498;28;20048;-70
2022/08/07 08:28:34;;;;;;;2.88;1.20;;;;;;;23.41;38.64;101298.41;5023755;28;20032;-70
2022/08/07 08:31:00;;;;;;;3.05;1.35;;;;;;;23.48;37.92;101302.59;5022482;28;20048;-70
2022/08/07 08:33:30;;;;;;;4.07;1.30;;;;;;;23.56;36.92;101304.44;4992745;28;20037;-70
2022/08/07 08:35:56;;;;;;;2.17;1.23;;;;;;;23.49;37.52;101307.94;5004794;28;20083;-69
2022/08/07 08:38:24;;;;;;;5.40;1.52;;;;;;;23.54;36.29;101301.16;5007158;28;20120;-70
2022/08/07 08:40:55;;;;;;;2.47;1.23;;;;;;;23.66;36.44;101303.09;5024398;28;20029;-70
2022/08/07 08:43:45;;;;;;;3.55;1.23;;;;;;;23.66;36.51;101297.44;5006651;28;20036;-70
2022/08/07 08:46:20;;;;;;;2.08;1.10;;;;;;;23.85;36.20;101294.72;4995187;28;20043;-70
2022/08/07 08:48:56;;;;;;;7.68;1.60;;;;;;;23.91;36.38;101279.06;5024486;28;20392;-70
2022/08/07 08:51:27;;;;;;;3.95;1.20;;;;;;;24.06;36.37;101289.56;5008858;28;20029;-75
2022/08/07 08:54:08;;;;;;;1.90;1.13;;;;;;;24.15;35.95;101292.22;5058139;28;20143;-70
2022/08/07 08:56:40;;;;;;;2.15;1.17;;;;;;;24.29;35.45;101301.09;5058282;28;20041;-70
2022/08/07 08:59:23;;;;;;;4.03;1.27;;;;;;;24.43;35.00;101300.66;5024309;28;20021;-70
2022/08/07 09:02:04;;;;;;;3.33;1.10;;;;;;;24.41;34.05;101288.81;5057766;28;20064;-70
2022/08/07 09:04:43;;;;;;;5.32;1.30;;;;;;;24.40;34.11;101292.00;5007919;28;20063;-70
2022/08/07 09:07:28;;;;;;;2.97;1.17;;;;;;;24.49;33.61;101292.66;5020656;28;20047;-70
2022/08/07 09:10:00;;;;;;;3.70;1.13;;;;;;;24.48;33.39;101279.66;5009212;28;20033;-70
2022/08/07 09:12:38;;;;;;;1.95;1.25;;;;;;;24.60;33.43;101279.53;5040187;28;20044;-70
2022/08/07 09:15:10;;;;;;;1.98;1.08;;;;;;;24.74;34.17;101279.84;5038100;28;20033;-70
2022/08/07 09:17:55;;;;;;;2.00;1.00;;;;;;;24.81;33.49;101281.19;5023440;28;20111;-70
2022/08/07 09:20:28;;;;;;;3.50;1.20;;;;;;;24.89;32.50;101291.50;5041670;28;20041;-70
2022/08/07 09:23:17;;;;;;;2.78;1.00;;;;;;;24.88;32.39;101296.38;5006474;28;20055;-70
2022/08/07 09:26:00;;;;;;;3.92;1.17;;;;;;;24.88;32.35;101289.88;5040113;28;20103;-70
2022/08/07 09:28:38;;;;;;;2.63;1.13;;;;;;;24.92;32.16;101288.75;5023287;28;20029;-70
2022/08/07 09:31:23;;;;;;;4.05;1.23;;;;;;;25.03;32.33;101263.41;5003550;28;20128;-70
2022/08/07 09:34:03;;;;;;;1.92;1.00;;;;;;;25.21;32.40;101271.47;5017939;28;20033;-70
2022/08/07 09:36:31;;;;;;;5.05;1.05;;;;;;;25.25;32.32;101284.56;5024100;28;20037;-70
2022/08/07 09:39:14;;;;;;;2.65;1.23;;;;;;;25.27;31.35;101272.81;5023223;28;20024;-70
2022/08/07 09:41:45;;;;;;;2.80;0.95;;;;;;;25.29;31.53;101281.78;5040164;28;20025;-70
2022/08/07 09:44:26;;;;;;;3.03;0.88;;;;;;;25.33;31.14;101274.19;5023193;28;20029;-69
2022/08/07 09:47:07;;;;;;;3.35;0.88;;;;;;;25.45;30.99;101267.47;5006579;28;20116;-69
2022/08/07 09:49:55;;;;;;;3.05;1.00;;;;;;;25.47;30.96;101277.28;5030157;28;20036;-70
2022/08/07 09:52:21;;;;;;;4.80;1.23;;;;;;;25.40;30.99;101271.44;5029807;28;20079;-70
2022/08/07 09:54:49;;;;;;;2.22;0.80;;;;;;;25.36;31.23;101267.72;5057086;28;20033;-70
2022/08/07 09:57:28;;;;;;;2.33;1.10;;;;;;;25.26;31.15;101260.63;5001964;28;20037;-70
2022/08/07 10:00:13;;;;;;;6.35;0.90;;;;;;;25.46;31.60;101258.56;5006742;28;20048;-69
2022/08/07 10:02:51;;;;;;;2.78;1.15;;;;;;;25.50;31.25;101253.78;5023382;28;20092;-70
2022/08/07 10:05:39;;;;;;;2.90;0.90;;;;;;;25.55;31.47;101262.00;5048712;28;20546;-69
2022/08/07 10:08:28;;;;;;;2.63;1.00;;;;;;;25.64;31.15;101259.72;5053719;28;20047;-70
2022/08/07 10:11:20;;;;;;;4.60;1.00;;;;;;;25.76;30.95;101253.00;5049186;28;20392;-70
2022/08/07 10:13:48;;;;;;;1.02;0.80;;;;;;;25.89;31.35;101252.84;5017210;28;20049;-69
2022/08/07 10:16:32;;;;;;;5.97;1.20;;;;;;;25.99;30.79;101247.34;5022266;28;20469;-70
2022/08/07 10:19:33;;;;;;;3.92;1.20;;;;;;;26.05;30.29;101245.81;5038741;28;20049;-69
2022/08/07 10:22:25;;;;;;;5.93;1.10;;;;;;;26.14;30.14;101222.75;5037142;28;20029;-69
2022/08/07 10:25:36;;;;;;;2.37;1.00;;;;;;;26.15;30.36;101235.78;4996384;28;20536;-70
2022/08/07 10:28:22;;;;;;;3.38;1.05;;;;;;;26.25;29.87;101248.56;4993844;28;20040;-69
2022/08/07 10:31:06;;;;;;;6.13;1.20;;;;;;;26.27;29.57;101246.97;5019693;28;20036;-70
2022/08/07 10:33:56;;;;;;;1.65;0.90;;;;;;;26.28;29.05;101240.06;5048426;28;20366;-70
2022/08/07 10:37:01;;;;;;;2.17;0.80;;;;;;;26.27;28.94;101241.28;5029481;28;20033;-70
2022/08/07 10:39:41;;;;;;;2.75;1.05;;;;;;;26.27;28.69;101234.72;5008488;28;20485;-70
2022/08/07 10:42:35;;;;;;;2.08;1.00;;;;;;;26.23;28.75;101233.88;5056321;28;20067;-70
2022/08/07 10:45:04;;;;;;;2.38;0.80;;;;;;;26.36;28.60;101232.44;5018417;28;20727;-70
2022/08/07 10:47:57;;;;;;;3.28;1.10;;;;;;;26.38;28.60;101241.41;5045345;28;20067;-69
2022/08/07 10:50:26;;;;;;;2.42;0.80;;;;;;;26.44;28.01;101228.50;5005233;28;20032;-69
2022/08/07 10:53:00;;;;;;;1.70;0.85;;;;;;;26.56;28.86;101223.78;5021899;28;20396;-70
2022/08/07 10:55:28;;;;;;;2.45;0.80;;;;;;;26.54;28.47;101223.34;5021482;28;20489;-70
2022/08/07 10:58:33;;;;;;;2.55;0.98;;;;;;;26.67;28.28;101210.50;5021981;28;20032;-70
2022/08/07 11:00:58;;;;;;;2.00;1.08;;;;;;;26.72;28.49;101222.38;5033319;28;20041;-70
2022/08/07 11:03:40;;;;;;;2.63;0.80;;;;;;;26.84;28.23;101204.19;5055983;28;20084;-69
2022/08/07 11:06:53;;;;;;;1.77;0.70;;;;;;;26.83;28.51;101216.81;5006126;28;20040;-69
2022/08/07 11:09:21;;;;;;;;;;;;;;;26.99;28.14;101196.63;4934171;29;20283;-69
2022/08/07 11:11:50;;;;;;;1.98;0.90;;;;;;;27.11;28.02;101192.69;4939901;29;19914;-69
2022/08/07 11:14:36;;;;;;;1.60;0.90;;;;;;;27.11;27.57;101202.06;4914882;29;20046;-70
2022/08/07 11:17:18;;;;;;;4.07;1.10;;;;;;;27.14;27.39;101187.03;4906115;29;20031;-69
2022/08/07 11:19:50;;;;;;;1.45;0.90;;;;;;;27.26;27.39;101188.81;4925607;29;20055;-69
2022/08/07 11:22:15;;;;;;;2.63;0.80;;;;;;;27.29;27.59;101190.06;4923596;29;20487;-69
2022/08/07 11:24:47;;;;;;;5.57;1.23;;;;;;;27.39;27.49;101180.78;4953804;29;20042;-69
2022/08/07 11:27:26;;;;;;;1.87;0.90;;;;;;;27.34;27.70;101193.38;4917258;29;20055;-69
2022/08/07 11:30:05;;;;;;;1.70;0.80;;;;;;;27.36;27.69;101173.03;4908546;29;20031;-70
2022/08/07 11:32:36;;;;;;;2.20;0.95;;;;;;;27.46;27.32;101169.44;4914894;29;20039;-69
2022/08/07 11:35:18;;;;;;;1.58;0.80;;;;;;;27.46;27.41;101180.03;4939446;29;20032;-69
2022/08/07 11:38:11;;;;;;;7.47;0.90;;;;;;;27.59;27.87;101167.09;4924377;29;20082;-70
2022/08/07 11:41:05;;;;;;;1.90;0.77;;;;;;;27.74;27.40;101168.03;5015781;28;20033;-70
2022/08/07 11:43:37;;;;;;;2.78;0.90;;;;;;;27.84;27.71;101148.16;5033215;28;20651;-70